Cap Castillo — A8PI5 — position and weather

sailwx.info

Track history (hours):
 
Tides and Currents Weather Stations Pressure Air Temp Water Temp Dewpoint Dewpoint Depression Visibility Wind Speed Wind Dir Waves Ship Positions

Cap Castillo

Last reported at 2017-Aug-19 16:53 UTC. Time now 2017-Aug-19 17:01 UTC.
Position S 23°58' W 046°18'.

Length 215 m; draft 8.6 m.

Type: Ship. MMSI: 636091558.

Date/timePositionNaut miles runAvg speedWind from/ knotsBaromVisibWave heightAir tempDewpointWater temp
2017-Aug-19 16:53S 23°58' W 046°18'0 0.0
2017-Aug-19 16:29S 23°58' W 046°18'0 0.0
2017-Aug-19 15:59S 23°58' W 046°18'0 0.0
2017-Aug-19 15:26S 23°58' W 046°18'0 0.0
2017-Aug-19 14:53S 23°58' W 046°18'0 0.0
2017-Aug-19 13:59S 23°58' W 046°18'0 0.0
2017-Aug-19 13:26S 23°58' W 046°18'0 0.0
2017-Aug-19 13:01S 23°58' W 046°18'1 1.7
2017-Aug-19 12:29S 23°59' W 046°17'4 7.5
2017-Aug-19 11:59S 24°01' W 046°21'510.9
2017-Aug-19 11:30S 24°07' W 046°21'2 3.1
2017-Aug-19 10:50S 24°08' W 046°20'0 0.0
2017-Aug-19 10:29S 24°08' W 046°20'0 0.0
2017-Aug-19 09:53S 24°08' W 046°20'0 0.1
2017-Aug-19 09:29S 24°08' W 046°20'0 0.0
2017-Aug-19 08:59S 24°08' W 046°20'0 0.0
2017-Aug-19 08:29S 24°08' W 046°20'0 0.1
2017-Aug-19 07:59S 24°08' W 046°20'0 0.1
2017-Aug-19 07:23S 24°08' W 046°20'0 0.0
2017-Aug-19 06:53S 24°08' W 046°20'0 0.0
2017-Aug-19 06:29S 24°08' W 046°20'0 0.0
2017-Aug-19 05:56S 24°08' W 046°20'0 0.0
2017-Aug-19 05:29S 24°08' W 046°20'0 0.1
2017-Aug-19 04:59S 24°08' W 046°20'0 0.0
2017-Aug-19 04:29S 24°08' W 046°20'0 0.0
2017-Aug-19 03:56S 24°08' W 046°20'0 0.0
2017-Aug-19 03:26S 24°08' W 046°20'0 0.0
2017-Aug-19 02:56S 24°08' W 046°20'0 0.0
2017-Aug-19 02:29S 24°08' W 046°20'0 0.0
2017-Aug-19 01:59S 24°08' W 046°20'0 0.1
2017-Aug-19 01:29S 24°08' W 046°20'0 0.0
2017-Aug-19 00:59S 24°08' W 046°20'0 0.0
2017-Aug-19 00:23S 24°08' W 046°20'0 0.1
2017-Aug-18 23:59S 24°08' W 046°20'0 0.0
2017-Aug-18 23:29S 24°08' W 046°20'0 0.0
2017-Aug-18 22:53S 24°08' W 046°20'0 0.0
2017-Aug-18 22:23S 24°08' W 046°20'0 0.0
2017-Aug-18 21:56S 24°08' W 046°20'0 0.0
2017-Aug-18 21:29S 24°08' W 046°20'0 0.0
2017-Aug-18 20:59S 24°08' W 046°20'0 0.0
2017-Aug-18 20:29S 24°08' W 046°20'0 0.0
2017-Aug-18 19:59S 24°08' W 046°20'0 0.0
2017-Aug-18 19:29S 24°08' W 046°20'0 0.0
2017-Aug-18 18:59S 24°08' W 046°20'0 0.0
2017-Aug-18 18:23S 24°08' W 046°20'0 0.0
2017-Aug-18 17:59S 24°08' W 046°20'0 0.0
2017-Aug-18 17:29S 24°08' W 046°20'0 0.0
2017-Aug-18 16:59S 24°08' W 046°20'0 0.0
2017-Aug-18 16:29S 24°08' W 046°20'0 0.0
2017-Aug-18 15:59S 24°08' W 046°20'0 0.1
2017-Aug-18 15:29S 24°08' W 046°20'0 0.0
2017-Aug-18 14:53S 24°08' W 046°20'0 0.1
2017-Aug-18 14:26S 24°08' W 046°20'1 0.7
2017-Aug-18 13:30S 24°07' W 046°20'4 7.7
2017-Aug-18 13:00S 24°09' W 046°24'4 8.9
2017-Aug-18 12:30S 24°13' W 046°22'611.7
2017-Aug-18 12:00S 24°17' W 046°17'612.2
2017-Aug-18 11:30S 24°21' W 046°13'611.1
2017-Aug-18 11:00S 24°21' W 046°07'  
Track history (hours):
 
Tides and Currents Weather Stations Pressure Air Temp Water Temp Dewpoint Dewpoint Depression Visibility Wind Speed Wind Dir Waves Ship Positions

Cap Castillo

Last reported at 2017-Aug-19 16:53 UTC. Time now 2017-Aug-19 17:01 UTC.
Position S 23°58' W 046°18'.

Length 215 m; draft 8.6 m.

Type: Ship. MMSI: 636091558.

Date/timePositionNaut miles runAvg speedWind from/ knotsBaromVisibWave heightAir tempDewpointWater temp
2017-Aug-19 16:53S 23°58' W 046°18'0 0.0
2017-Aug-19 16:29S 23°58' W 046°18'0 0.0
2017-Aug-19 15:59S 23°58' W 046°18'0 0.0
2017-Aug-19 15:26S 23°58' W 046°18'0 0.0
2017-Aug-19 14:53S 23°58' W 046°18'0 0.0
2017-Aug-19 13:59S 23°58' W 046°18'0 0.0
2017-Aug-19 13:26S 23°58' W 046°18'0 0.0
2017-Aug-19 13:01S 23°58' W 046°18'1 1.7
2017-Aug-19 12:29S 23°59' W 046°17'4 7.5
2017-Aug-19 11:59S 24°01' W 046°21'510.9
2017-Aug-19 11:30S 24°07' W 046°21'2 3.1
2017-Aug-19 10:50S 24°08' W 046°20'0 0.0
2017-Aug-19 10:29S 24°08' W 046°20'0 0.0
2017-Aug-19 09:53S 24°08' W 046°20'0 0.1
2017-Aug-19 09:29S 24°08' W 046°20'0 0.0
2017-Aug-19 08:59S 24°08' W 046°20'0 0.0
2017-Aug-19 08:29S 24°08' W 046°20'0 0.1
2017-Aug-19 07:59S 24°08' W 046°20'0 0.1
2017-Aug-19 07:23S 24°08' W 046°20'0 0.0
2017-Aug-19 06:53S 24°08' W 046°20'0 0.0
2017-Aug-19 06:29S 24°08' W 046°20'0 0.0
2017-Aug-19 05:56S 24°08' W 046°20'0 0.0
2017-Aug-19 05:29S 24°08' W 046°20'0 0.1
2017-Aug-19 04:59S 24°08' W 046°20'0 0.0
2017-Aug-19 04:29S 24°08' W 046°20'0 0.0
2017-Aug-19 03:56S 24°08' W 046°20'0 0.0
2017-Aug-19 03:26S 24°08' W 046°20'0 0.0
2017-Aug-19 02:56S 24°08' W 046°20'0 0.0
2017-Aug-19 02:29S 24°08' W 046°20'0 0.0
2017-Aug-19 01:59S 24°08' W 046°20'0 0.1
2017-Aug-19 01:29S 24°08' W 046°20'0 0.0
2017-Aug-19 00:59S 24°08' W 046°20'0 0.0
2017-Aug-19 00:23S 24°08' W 046°20'0 0.1
2017-Aug-18 23:59S 24°08' W 046°20'0 0.0
2017-Aug-18 23:29S 24°08' W 046°20'0 0.0
2017-Aug-18 22:53S 24°08' W 046°20'0 0.0
2017-Aug-18 22:23S 24°08' W 046°20'0 0.0
2017-Aug-18 21:56S 24°08' W 046°20'0 0.0
2017-Aug-18 21:29S 24°08' W 046°20'0 0.0
2017-Aug-18 20:59S 24°08' W 046°20'0 0.0
2017-Aug-18 20:29S 24°08' W 046°20'0 0.0
2017-Aug-18 19:59S 24°08' W 046°20'0 0.0
2017-Aug-18 19:29S 24°08' W 046°20'0 0.0
2017-Aug-18 18:59S 24°08' W 046°20'0 0.0
2017-Aug-18 18:23S 24°08' W 046°20'0 0.0
2017-Aug-18 17:59S 24°08' W 046°20'0 0.0
2017-Aug-18 17:29S 24°08' W 046°20'0 0.0
2017-Aug-18 16:59S 24°08' W 046°20'0 0.0
2017-Aug-18 16:29S 24°08' W 046°20'0 0.0
2017-Aug-18 15:59S 24°08' W 046°20'0 0.1
2017-Aug-18 15:29S 24°08' W 046°20'0 0.0
2017-Aug-18 14:53S 24°08' W 046°20'0 0.1
2017-Aug-18 14:26S 24°08' W 046°20'1 0.7
2017-Aug-18 13:30S 24°07' W 046°20'4 7.7
2017-Aug-18 13:00S 24°09' W 046°24'4 8.9
2017-Aug-18 12:30S 24°13' W 046°22'611.7
2017-Aug-18 12:00S 24°17' W 046°17'612.2
2017-Aug-18 11:30S 24°21' W 046°13'611.1
2017-Aug-18 11:00S 24°21' W 046°07'  

Dump ship's entire track history